SGCO/CIO METAR and TAF weather

Enter ICAO airport designator
Station Type Date Time Source
SGCO METAR 2019/07/18 09:00 UTC NOAA

SGCO 180900Z 09005KT CAVOK 16/12 Q 1016


Station Type Date Time Source
SGCO Decoded METAR 2019/07/18 09:00 UTC NOAA

Concepcion, Paraguay (SGCO) 23-25S 057-18W 74M
Jul 18, 2019 - 05:00 AM EDT / 2019.07.18 0900 UTC
Wind: from the E (090 degrees) at 6 MPH (5 KT):0
Visibility: greater than 7 mile(s):0
Temperature: 60 F (16 C)
Dew Point: 53 F (12 C)
Relative Humidity: 77%
Pressure (altimeter): 30.00 in. Hg (1016 hPa)
ob: SGCO 180900Z 09005KT CAVOK 16/12 Q 1016
cycle: 9

Station Type Date Time Source
SGCO TAF 2019/07/18 12:00 UTC NOAA

TAF SGCO 181053Z 1812/1912 09005KT CAVOK TX25/1819Z TN17/1909Z
BECMG 1813/1816 08003KT 9999 BKN020 PROB30 1817/1820 8000 -RA BKN015
BECMG 1821/1900 05012KT 9999 BKN027
BECMG 1901/1904 CAVOK

Example: see airport list